createdAt,value
2017-12-25T00:01:25.207Z,1.10
2017-12-25T00:03:52.110Z,1.10
2017-12-25T00:06:18.955Z,1.10
2017-12-25T00:08:45.818Z,1.20
2017-12-25T00:11:12.654Z,1.20
2017-12-25T00:13:39.558Z,1.00
2017-12-25T00:16:06.398Z,1.00
2017-12-25T00:18:33.226Z,1.00
2017-12-25T00:21:00.099Z,1.00
2017-12-25T00:23:26.970Z,0.90
2017-12-25T00:25:54.606Z,0.90
2017-12-25T00:28:22.209Z,0.90
2017-12-25T00:30:49.094Z,0.90
2017-12-25T00:33:15.944Z,1.00
2017-12-25T00:35:43.540Z,1.00
2017-12-25T00:38:10.390Z,0.90
2017-12-25T00:40:37.265Z,0.90
2017-12-25T00:43:04.107Z,0.90
2017-12-25T00:45:30.988Z,1.00
2017-12-25T00:47:58.603Z,1.00
2017-12-25T00:50:25.522Z,1.00
2017-12-25T00:52:53.106Z,1.10
2017-12-25T00:55:19.933Z,1.10
2017-12-25T00:57:46.799Z,1.20
2017-12-25T01:00:13.666Z,1.10
2017-12-25T01:02:40.525Z,1.10
2017-12-25T01:05:07.394Z,1.10
2017-12-25T01:07:34.250Z,0.90
2017-12-25T01:10:01.075Z,0.90
2017-12-25T01:12:28.714Z,0.90
2017-12-25T01:14:55.568Z,0.90
2017-12-25T01:17:22.407Z,0.90
2017-12-25T01:19:49.255Z,0.90
2017-12-25T01:22:16.876Z,0.90
2017-12-25T01:24:43.702Z,0.90
2017-12-25T01:27:10.573Z,0.90
2017-12-25T01:29:37.425Z,0.90
2017-12-25T01:32:04.251Z,0.90
2017-12-25T01:34:31.102Z,0.90
2017-12-25T01:36:57.934Z,0.90
2017-12-25T01:39:24.753Z,0.90
2017-12-25T01:41:51.630Z,0.80
2017-12-25T01:44:18.487Z,0.70
2017-12-25T01:46:57.600Z,0.70
2017-12-25T01:49:24.425Z,0.70
2017-12-25T01:51:51.306Z,0.60
2017-12-25T01:54:18.266Z,0.50
2017-12-25T01:56:45.908Z,0.40
2017-12-25T01:59:13.779Z,0.40
2017-12-25T02:01:46.760Z,0.50
2017-12-25T02:04:15.501Z,0.60
2017-12-25T02:09:39.462Z,0.70
2017-12-25T02:12:07.123Z,0.60
2017-12-25T02:14:34.766Z,0.60
2017-12-25T02:17:01.638Z,0.60
2017-12-25T02:19:28.496Z,0.50
2017-12-25T02:21:56.509Z,0.50
2017-12-25T02:24:23.362Z,0.60
2017-12-25T02:26:50.238Z,0.60
2017-12-25T02:29:17.890Z,0.40
2017-12-25T02:31:44.767Z,0.40
2017-12-25T02:34:11.638Z,0.40
2017-12-25T02:36:38.546Z,0.30
2017-12-25T02:39:05.686Z,0.30
2017-12-25T02:41:32.563Z,0.30
2017-12-25T02:43:59.434Z,0.30
2017-12-25T02:46:26.274Z,0.30
2017-12-25T02:48:53.118Z,0.30
2017-12-25T02:51:19.984Z,0.20
2017-12-25T02:53:46.862Z,0.10
2017-12-25T02:56:13.730Z,0.00
2017-12-25T02:58:40.594Z,0.10
2017-12-25T03:01:07.442Z,0.10
2017-12-25T03:03:34.323Z,0.10
2017-12-25T03:06:01.275Z,0.20
2017-12-25T03:08:28.106Z,0.20
2017-12-25T03:10:55.748Z,0.20
2017-12-25T03:13:22.666Z,0.10
2017-12-25T03:15:49.554Z,0.20
2017-12-25T03:18:16.458Z,0.20
2017-12-25T03:20:43.310Z,0.20
2017-12-25T03:23:10.142Z,0.20
2017-12-25T03:25:37.049Z,0.20
2017-12-25T03:28:03.916Z,0.40
2017-12-25T03:30:30.826Z,0.40
2017-12-25T03:32:57.698Z,0.40
2017-12-25T03:35:24.565Z,0.50
2017-12-25T03:37:51.454Z,0.40
2017-12-25T03:40:18.317Z,0.40
2017-12-25T03:42:45.163Z,0.30
2017-12-25T03:45:12.051Z,0.30
2017-12-25T03:47:38.894Z,0.30
2017-12-25T03:50:05.777Z,0.50
2017-12-25T03:52:32.669Z,0.40
2017-12-25T03:54:59.478Z,0.40
2017-12-25T03:57:26.355Z,0.40
2017-12-25T03:59:53.212Z,0.40
2017-12-25T04:02:20.055Z,0.40
2017-12-25T04:04:47.682Z,0.50
2017-12-25T04:07:14.535Z,0.40
2017-12-25T04:09:41.401Z,0.40
2017-12-25T04:12:08.294Z,0.40
2017-12-25T04:14:35.173Z,0.40
2017-12-25T04:17:02.046Z,0.50
2017-12-25T04:19:28.923Z,0.40
2017-12-25T04:21:55.846Z,0.40
2017-12-25T04:24:22.713Z,0.40
2017-12-25T04:26:49.538Z,0.50
2017-12-25T04:29:16.418Z,0.50
2017-12-25T04:31:44.275Z,0.50
2017-12-25T04:34:11.152Z,0.40
2017-12-25T04:36:38.027Z,0.30
2017-12-25T04:39:04.889Z,0.40
2017-12-25T04:41:31.757Z,0.40
2017-12-25T04:43:58.630Z,0.30
2017-12-25T04:46:26.254Z,0.30
2017-12-25T04:48:53.098Z,0.30
2017-12-25T04:51:21.062Z,0.30
2017-12-25T04:53:47.878Z,0.30
2017-12-25T04:56:14.720Z,0.20
2017-12-25T04:58:41.591Z,0.30
2017-12-25T05:01:08.447Z,0.20
2017-12-25T05:03:35.306Z,0.20
2017-12-25T05:06:02.159Z,0.20
2017-12-25T05:08:29.048Z,0.20
2017-12-25T05:10:57.686Z,0.10
2017-12-25T05:13:24.575Z,0.10
2017-12-25T05:15:51.534Z,0.10
2017-12-25T05:18:18.386Z,0.00
2017-12-25T05:20:45.275Z,0.00
2017-12-25T05:23:12.877Z,0.10
2017-12-25T05:25:39.722Z,0.10
2017-12-25T05:28:06.601Z,0.10
2017-12-25T05:30:33.495Z,0.20
2017-12-25T05:33:00.323Z,0.20
2017-12-25T05:35:27.173Z,0.20
2017-12-25T05:37:54.077Z,0.20
2017-12-25T05:40:20.942Z,0.20
2017-12-25T05:42:48.786Z,0.20
2017-12-25T05:45:15.653Z,0.20
2017-12-25T05:47:42.528Z,0.10
2017-12-25T05:50:09.363Z,0.20
2017-12-25T05:52:36.227Z,0.20
2017-12-25T05:55:03.102Z,0.20
2017-12-25T05:57:29.954Z,0.20
2017-12-25T05:59:56.885Z,0.20
2017-12-25T06:02:23.742Z,0.10
2017-12-25T06:04:50.620Z,0.10
2017-12-25T06:07:17.491Z,0.00
2017-12-25T06:09:44.333Z,0.00
2017-12-25T06:12:11.208Z,0.00
2017-12-25T06:14:38.126Z,-0.10
2017-12-25T06:17:05.790Z,0.00
2017-12-25T06:19:32.699Z,0.00
2017-12-25T06:21:59.622Z,0.00
2017-12-25T06:24:26.486Z,0.00
2017-12-25T06:26:54.328Z,0.00
2017-12-25T06:29:21.939Z,-0.10
2017-12-25T06:31:48.843Z,-0.10
2017-12-25T06:34:16.422Z,-0.10
2017-12-25T06:36:43.270Z,-0.10
2017-12-25T06:39:10.155Z,-0.20
2017-12-25T06:41:37.006Z,-0.20
2017-12-25T06:44:03.859Z,-0.10
2017-12-25T06:46:30.714Z,-0.10
2017-12-25T06:48:57.550Z,-0.10
2017-12-25T06:51:26.364Z,-0.10
2017-12-25T06:53:53.246Z,-0.10
2017-12-25T06:56:20.116Z,-0.10
2017-12-25T06:58:47.211Z,0.10
2017-12-25T07:01:14.091Z,0.10
2017-12-25T07:03:41.392Z,0.20
2017-12-25T07:06:09.011Z,0.10
2017-12-25T07:08:36.613Z,0.20
2017-12-25T07:11:04.202Z,0.20
2017-12-25T07:13:31.047Z,0.20
2017-12-25T07:15:57.922Z,0.20
2017-12-25T07:18:24.734Z,0.20
2017-12-25T07:20:51.605Z,0.30
2017-12-25T07:23:18.492Z,0.30
2017-12-25T07:25:45.347Z,0.30
2017-12-25T07:28:12.214Z,0.20
2017-12-25T07:30:39.121Z,0.20
2017-12-25T07:33:06.048Z,0.30
2017-12-25T07:35:32.979Z,0.30
2017-12-25T07:37:59.870Z,0.30
2017-12-25T07:40:28.183Z,0.30
2017-12-25T07:42:55.639Z,0.40
2017-12-25T07:45:22.487Z,0.50
2017-12-25T07:47:49.379Z,0.50
2017-12-25T07:50:16.251Z,0.60
2017-12-25T07:52:43.127Z,0.60
2017-12-25T07:55:10.004Z,0.60
2017-12-25T07:57:36.867Z,0.70
2017-12-25T08:00:03.713Z,0.70
2017-12-25T08:02:31.364Z,0.80
2017-12-25T08:04:58.271Z,0.80
2017-12-25T08:07:25.426Z,0.80
2017-12-25T08:09:52.336Z,0.90
2017-12-25T08:12:19.194Z,1.00
2017-12-25T08:14:46.078Z,1.00
2017-12-25T08:17:13.647Z,1.00
2017-12-25T08:19:40.490Z,1.00
2017-12-25T08:22:07.355Z,1.10
2017-12-25T08:24:34.164Z,1.10
2017-12-25T08:27:01.023Z,1.20
2017-12-25T08:29:27.871Z,1.20
2017-12-25T08:31:54.823Z,1.20
2017-12-25T08:34:21.679Z,1.30
2017-12-25T08:36:48.790Z,1.40
2017-12-25T08:39:15.766Z,1.40
2017-12-25T08:41:42.704Z,1.50
2017-12-25T08:44:09.615Z,1.70
2017-12-25T08:46:37.195Z,1.90
2017-12-25T08:49:04.368Z,1.80
2017-12-25T08:51:31.323Z,1.90
2017-12-25T08:53:59.187Z,2.10
2017-12-25T08:56:26.228Z,2.10
2017-12-25T08:58:53.103Z,2.20
2017-12-25T09:01:19.982Z,2.30
2017-12-25T09:03:47.591Z,2.50
2017-12-25T09:06:14.497Z,2.50
2017-12-25T09:08:42.199Z,2.60
2017-12-25T09:11:09.274Z,2.70
2017-12-25T09:13:37.059Z,2.80
2017-12-25T09:16:04.704Z,3.10
2017-12-25T09:18:31.572Z,3.00
2017-12-25T09:20:58.492Z,3.20
2017-12-25T09:23:26.147Z,3.50
2017-12-25T09:25:53.031Z,3.50
2017-12-25T09:28:19.878Z,3.60
2017-12-25T09:30:46.755Z,3.80
2017-12-25T09:33:13.625Z,3.80
2017-12-25T09:35:40.487Z,4.00
2017-12-25T09:38:07.351Z,4.10
2017-12-25T09:40:34.512Z,4.30
2017-12-25T09:43:02.195Z,4.50
2017-12-25T09:45:29.050Z,4.50
2017-12-25T09:47:56.939Z,4.70
2017-12-25T09:50:23.851Z,4.70
2017-12-25T09:52:50.879Z,4.80
2017-12-25T09:55:17.740Z,5.00
2017-12-25T09:57:44.560Z,5.20
2017-12-25T10:00:11.648Z,5.40
2017-12-25T10:02:38.564Z,5.50
2017-12-25T10:05:05.464Z,5.70
2017-12-25T10:07:33.478Z,6.10
2017-12-25T10:10:01.422Z,6.30
2017-12-25T10:12:28.511Z,6.30
2017-12-25T10:14:55.583Z,6.60
2017-12-25T10:17:23.187Z,7.00
2017-12-25T10:19:50.145Z,6.90
2017-12-25T10:22:17.267Z,7.20
2017-12-25T10:24:44.210Z,7.60
2017-12-25T10:27:11.135Z,8.20
2017-12-25T10:29:38.038Z,9.00
2017-12-25T10:32:04.898Z,10.10
2017-12-25T10:34:31.742Z,11.20
2017-12-25T10:36:58.763Z,12.40
2017-12-25T10:39:25.740Z,13.20
2017-12-25T10:41:53.385Z,14.30
2017-12-25T10:44:20.442Z,14.30
2017-12-25T10:46:47.421Z,14.70
2017-12-25T10:49:16.154Z,15.10
2017-12-25T10:51:43.179Z,15.00
2017-12-25T10:54:10.094Z,15.00
2017-12-25T10:56:36.938Z,13.90
2017-12-25T10:59:04.947Z,15.20
2017-12-25T11:01:32.076Z,15.20
2017-12-25T11:03:58.975Z,15.50
2017-12-25T11:06:26.019Z,16.40
2017-12-25T11:08:53.051Z,16.60
2017-12-25T11:11:20.780Z,17.90
2017-12-25T11:13:47.875Z,17.90
2017-12-25T11:16:14.793Z,18.90
2017-12-25T11:18:42.428Z,19.00
2017-12-25T11:21:09.403Z,19.00
2017-12-25T11:23:36.330Z,19.40
2017-12-25T11:26:03.377Z,19.60
2017-12-25T11:28:30.395Z,19.50
2017-12-25T11:30:58.015Z,19.30
2017-12-25T11:33:24.923Z,19.30
2017-12-25T11:35:51.827Z,20.20
2017-12-25T11:38:18.670Z,19.50
2017-12-25T11:40:46.550Z,20.90
2017-12-25T11:43:13.527Z,20.80
2017-12-25T11:45:40.634Z,21.00
2017-12-25T11:48:07.552Z,21.70
2017-12-25T11:50:34.386Z,22.30
2017-12-25T11:53:01.238Z,21.50
2017-12-25T11:55:28.459Z,21.80
2017-12-25T11:57:55.359Z,21.50
2017-12-25T12:00:23.145Z,22.20
2017-12-25T12:02:50.898Z,22.50
2017-12-25T12:05:17.983Z,22.50
2017-12-25T12:07:45.690Z,22.30
2017-12-25T12:10:12.543Z,22.30
2017-12-25T12:12:40.163Z,24.20
2017-12-25T12:15:07.288Z,24.10
2017-12-25T12:17:34.326Z,24.20
2017-12-25T12:20:01.899Z,23.80
2017-12-25T12:22:28.779Z,23.80
2017-12-25T12:24:55.635Z,24.20
2017-12-25T12:27:23.261Z,24.50
2017-12-25T12:29:50.090Z,24.40
2017-12-25T12:32:16.935Z,24.00
2017-12-25T12:34:43.778Z,22.70
2017-12-25T12:37:10.696Z,22.00
2017-12-25T12:39:38.282Z,22.90
2017-12-25T12:42:05.170Z,22.90
2017-12-25T12:44:32.044Z,22.60
2017-12-25T12:46:59.199Z,22.30
2017-12-25T12:49:26.074Z,21.50
2017-12-25T12:51:52.964Z,20.80
2017-12-25T12:54:20.754Z,17.10
2017-12-25T12:56:47.761Z,17.00
2017-12-25T12:59:14.913Z,15.60
2017-12-25T13:01:42.045Z,15.10
2017-12-25T13:04:09.114Z,15.20
2017-12-25T13:06:37.067Z,15.40
2017-12-25T13:09:03.943Z,15.40
2017-12-25T13:11:30.826Z,15.90
2017-12-25T13:13:57.851Z,17.20
2017-12-25T13:16:25.783Z,19.70
2017-12-25T13:18:53.426Z,20.00
2017-12-25T13:21:20.586Z,19.90
2017-12-25T13:23:48.566Z,19.80
2017-12-25T13:26:15.399Z,20.10
2017-12-25T13:28:43.210Z,19.60
2017-12-25T13:31:10.511Z,19.50
2017-12-25T13:33:37.370Z,20.10
2017-12-25T13:36:04.347Z,20.40
2017-12-25T13:38:31.198Z,20.20
2017-12-25T13:40:58.238Z,19.60
2017-12-25T13:43:25.422Z,18.60
2017-12-25T13:45:52.690Z,18.10
2017-12-25T13:48:20.486Z,16.50
2017-12-25T13:50:48.371Z,15.10
2017-12-25T13:53:15.446Z,15.10
2017-12-25T13:55:42.406Z,14.00
2017-12-25T13:58:09.455Z,13.20
2017-12-25T14:00:36.546Z,12.50
2017-12-25T14:03:03.486Z,11.90
2017-12-25T14:05:30.715Z,11.50
2017-12-25T14:07:57.694Z,11.10
2017-12-25T14:10:24.711Z,10.70
2017-12-25T14:12:51.720Z,10.40
2017-12-25T14:15:19.387Z,9.80
2017-12-25T14:17:54.295Z,9.80
2017-12-25T14:36:54.882Z,8.80
2017-12-25T14:39:21.772Z,8.70
2017-12-25T14:41:48.858Z,8.60
2017-12-25T14:44:15.718Z,8.40
2017-12-25T14:46:42.611Z,8.20
2017-12-25T14:49:09.783Z,7.90
2017-12-25T14:51:36.753Z,7.90
2017-12-25T14:54:03.615Z,7.80
2017-12-25T14:56:30.638Z,7.60
2017-12-25T14:58:57.623Z,7.40
2017-12-25T15:01:25.218Z,7.10
2017-12-25T15:03:52.470Z,7.00
2017-12-25T15:06:19.479Z,6.80
2017-12-25T15:08:46.490Z,6.60
2017-12-25T15:11:13.483Z,6.50
2017-12-25T15:13:40.457Z,6.30
2017-12-25T15:16:07.515Z,6.20
2017-12-25T15:18:34.584Z,5.90
2017-12-25T15:21:02.218Z,5.60
2017-12-25T15:23:29.302Z,5.60
2017-12-25T15:25:57.104Z,5.40
2017-12-25T15:28:24.843Z,5.20
2017-12-25T15:30:51.806Z,5.20
2017-12-25T15:33:19.613Z,5.00
2017-12-25T15:35:46.609Z,5.00
2017-12-25T15:38:13.507Z,4.90
2017-12-25T15:40:40.643Z,4.70
2017-12-25T15:43:07.721Z,4.70
2017-12-25T15:45:35.474Z,4.50
2017-12-25T15:48:02.408Z,4.50
2017-12-25T15:50:29.603Z,4.50
2017-12-25T15:52:56.626Z,4.30
2017-12-25T15:55:23.539Z,4.20
2017-12-25T15:57:50.432Z,4.10
2017-12-25T16:00:18.082Z,4.00
2017-12-25T16:02:45.192Z,4.00
2017-12-25T16:05:12.189Z,4.00
2017-12-25T16:07:39.155Z,3.90
2017-12-25T16:10:06.883Z,3.80
2017-12-25T16:12:33.991Z,3.80
2017-12-25T16:15:01.607Z,3.70
2017-12-25T16:17:29.360Z,3.70
2017-12-25T16:19:56.603Z,3.60
2017-12-25T16:22:23.522Z,3.60
2017-12-25T16:24:50.490Z,3.60
2017-12-25T16:27:17.639Z,3.60
2017-12-25T16:29:44.600Z,3.50
2017-12-25T16:32:11.716Z,3.50
2017-12-25T16:34:38.606Z,3.40
2017-12-25T16:37:05.476Z,3.30
2017-12-25T16:39:33.598Z,3.30
2017-12-25T16:42:03.815Z,3.30
2017-12-25T16:44:31.551Z,3.20
2017-12-25T16:46:58.528Z,3.20
2017-12-25T16:49:26.372Z,3.10
2017-12-25T16:51:54.247Z,3.00
2017-12-25T16:54:21.247Z,2.90
2017-12-25T16:56:48.834Z,2.80
2017-12-25T16:59:15.843Z,2.80
2017-12-25T17:01:42.868Z,2.70
2017-12-25T17:04:09.774Z,2.70
2017-12-25T17:06:37.599Z,2.70
2017-12-25T17:09:05.505Z,2.60
2017-12-25T17:11:32.822Z,2.60
2017-12-25T17:14:10.972Z,2.50
2017-12-25T17:31:37.559Z,2.30
2017-12-25T17:34:04.479Z,2.30
2017-12-25T17:36:48.415Z,2.20
2017-12-25T17:39:39.688Z,2.20
2017-12-25T17:42:07.392Z,2.10
2017-12-25T17:44:34.368Z,2.10
2017-12-25T17:47:02.174Z,2.10
2017-12-25T17:49:29.867Z,2.10
2017-12-25T17:51:56.735Z,2.10
2017-12-25T17:54:23.627Z,2.00
2017-12-25T17:56:50.782Z,2.00
2017-12-25T17:59:17.878Z,2.00
2017-12-25T18:01:44.738Z,1.90
2017-12-25T18:04:11.923Z,1.80
2017-12-25T18:06:39.899Z,1.80
2017-12-25T18:09:06.754Z,1.80
2017-12-25T18:11:33.990Z,1.80
2017-12-25T18:14:02.045Z,1.80
2017-12-25T18:16:29.335Z,1.80
2017-12-25T18:18:56.315Z,1.70
2017-12-25T18:21:24.226Z,1.80
2017-12-25T18:23:52.087Z,1.80
2017-12-25T18:26:19.039Z,1.70
2017-12-25T18:28:48.078Z,1.60
2017-12-25T18:31:16.026Z,1.60
2017-12-25T18:33:42.989Z,1.60
2017-12-25T18:36:10.546Z,1.60
2017-12-25T18:38:37.535Z,1.50
2017-12-25T18:41:05.182Z,1.40
2017-12-25T18:43:33.079Z,1.40
2017-12-25T18:46:00.938Z,1.40
2017-12-25T18:48:27.952Z,1.40
2017-12-25T18:50:55.651Z,1.40
2017-12-25T18:53:22.728Z,1.40
2017-12-25T18:55:49.788Z,1.50
2017-12-25T18:58:17.531Z,1.40
2017-12-25T19:00:45.239Z,1.40
2017-12-25T19:03:12.842Z,1.40
2017-12-25T19:05:39.699Z,1.30
2017-12-25T19:08:06.722Z,1.40
2017-12-25T19:10:33.660Z,1.40
2017-12-25T19:13:01.437Z,1.40
2017-12-25T19:15:28.398Z,1.40
2017-12-25T19:17:55.287Z,1.50
2017-12-25T19:20:22.902Z,1.50
2017-12-25T19:22:49.808Z,1.50
2017-12-25T19:25:16.965Z,1.40
2017-12-25T19:27:43.863Z,1.40
2017-12-25T19:30:11.746Z,1.30
2017-12-25T19:32:38.650Z,1.30
2017-12-25T19:35:05.499Z,1.30
2017-12-25T19:37:32.654Z,1.30
2017-12-25T19:39:59.555Z,1.30
2017-12-25T19:42:26.612Z,1.30
2017-12-25T19:44:54.414Z,1.30
2017-12-25T19:47:21.326Z,1.30
2017-12-25T19:49:49.340Z,1.40
2017-12-25T19:52:17.682Z,1.40
2017-12-25T19:54:44.711Z,1.30
2017-12-25T19:57:11.779Z,1.30
2017-12-25T19:59:39.398Z,1.30
2017-12-25T20:02:06.403Z,1.30
2017-12-25T20:04:33.379Z,1.30
2017-12-25T20:07:00.415Z,1.30
2017-12-25T20:09:27.546Z,1.30
2017-12-25T20:11:54.456Z,1.20
2017-12-25T20:14:22.151Z,1.20
2017-12-25T20:16:49.190Z,1.20
2017-12-25T20:19:20.067Z,1.30
2017-12-25T20:21:48.020Z,1.30
2017-12-25T20:24:15.016Z,1.30
2017-12-25T20:26:42.099Z,1.30
2017-12-25T20:29:09.030Z,1.20
2017-12-25T20:31:35.995Z,1.20
2017-12-25T20:34:28.079Z,1.10
2017-12-25T20:37:24.160Z,1.10
2017-12-25T20:39:51.332Z,1.10
2017-12-25T20:42:19.402Z,1.10
2017-12-25T20:44:47.111Z,1.20
2017-12-25T20:47:14.164Z,1.20
2017-12-25T20:49:50.193Z,1.20
2017-12-25T20:52:17.175Z,1.20
2017-12-25T20:54:44.129Z,1.30
2017-12-25T20:57:11.899Z,1.30
2017-12-25T20:59:38.798Z,1.30
2017-12-25T21:02:05.811Z,1.40
2017-12-25T21:04:39.251Z,1.30
2017-12-25T21:20:36.002Z,0.90
2017-12-25T21:23:03.579Z,0.90
2017-12-25T21:25:31.719Z,1.00
2017-12-25T21:27:59.263Z,0.90
2017-12-25T21:30:26.251Z,1.00
2017-12-25T21:32:53.290Z,1.00
2017-12-25T21:35:20.259Z,1.00
2017-12-25T21:37:47.190Z,0.90
2017-12-25T21:40:15.549Z,0.80
2017-12-25T21:42:42.587Z,0.70
2017-12-25T21:45:09.503Z,0.70
2017-12-25T21:47:36.458Z,0.60
2017-12-25T21:50:03.356Z,0.70
2017-12-25T21:52:30.370Z,0.70
2017-12-25T21:54:57.363Z,0.70
2017-12-25T21:57:24.302Z,0.70
2017-12-25T21:59:51.391Z,0.60
2017-12-25T22:02:18.456Z,0.50
2017-12-25T22:04:45.579Z,0.50
2017-12-25T22:07:12.479Z,0.50
2017-12-25T22:09:39.669Z,0.50
2017-12-25T22:12:06.743Z,0.40
2017-12-25T22:14:33.634Z,0.40
2017-12-25T22:17:00.721Z,0.50
2017-12-25T22:19:27.706Z,0.50
2017-12-25T22:21:54.757Z,0.50
2017-12-25T22:24:21.706Z,0.40
2017-12-25T22:26:50.036Z,0.30
2017-12-25T22:29:17.051Z,0.30
2017-12-25T22:31:44.118Z,0.40
2017-12-25T22:34:11.131Z,0.40
2017-12-25T22:36:40.011Z,0.30
2017-12-25T22:39:07.103Z,0.30
2017-12-25T22:41:34.114Z,0.20
2017-12-25T22:44:01.132Z,0.30
2017-12-25T22:46:28.041Z,0.20
2017-12-25T22:48:55.259Z,0.30
2017-12-25T22:51:22.270Z,0.20
2017-12-25T22:53:49.127Z,0.10
2017-12-25T22:56:16.266Z,0.10
2017-12-25T22:58:43.347Z,0.10
2017-12-25T23:01:10.802Z,0.10
2017-12-25T23:03:37.708Z,0.10
2017-12-25T23:06:04.522Z,0.00
2017-12-25T23:08:32.572Z,0.00
2017-12-25T23:11:02.463Z,0.00
2017-12-25T23:13:29.519Z,0.00
2017-12-25T23:15:56.742Z,0.00
2017-12-25T23:18:23.827Z,-0.10
2017-12-25T23:20:50.782Z,-0.10
2017-12-25T23:23:18.023Z,-0.20
2017-12-25T23:25:45.242Z,-0.10
2017-12-25T23:28:13.429Z,-0.20
2017-12-25T23:30:40.586Z,-0.20
2017-12-25T23:33:07.584Z,-0.30
2017-12-25T23:35:35.487Z,-0.30
2017-12-25T23:38:04.103Z,-0.30
2017-12-25T23:40:31.210Z,-0.30
2017-12-25T23:42:58.288Z,-0.30
2017-12-25T23:45:25.334Z,-0.30
2017-12-25T23:47:53.278Z,-0.40
2017-12-25T23:50:21.307Z,-0.40
2017-12-25T23:52:48.257Z,-0.40
2017-12-25T23:55:16.274Z,-0.40
2017-12-25T23:57:43.471Z,-0.40
